Etusivu
METAR-TAF:

METAR-TAF

Lentoasemat :

Zacatecas, Meksiko

Leveyspiiri: 22-54N, Pituuspiiri: 102-41W, korkeus merenpinnasta: 2140 m

Tämänhetkinen sää

Tämä raportti tehtiin 55 minuuttia sitten, kello 21.55 UTC
Tuuli 5 kn etelästä/lounaasta
Lämpötila 22°C
Kosteus 25%
Ilmanpaine 1026 hPa
Näkyvyys: 16.1 km
selkeää

METAR: MMZC 282155Z 20005KT 10SM SKC 22/01 A3030

Aika: 16:50 (22:50 UTC)

Sääennuste

Tämä raportti tehtiin 6 tuntia ja 18 minuuttia sitten, kello 16.32 UTC
Ennuste voimassa 28. päivästä klo 18 UTC - 29. päivään klo 24 UTC
Tuuli 10 kn idästä/kaakosta
Näkyvyys: 10 km
selkeää
From 29. päivästä klo 0300 UTC
Tuuli kn pohjoisesta
Näkyvyys: 10 km
selkeää
From 29. päivästä klo 1800 UTC
Tuuli 10 kn lounaasta
Näkyvyys: 10 km
selkeää

TAF: MMZC 281632Z 2818/2924 12010KT P6SM SKC TX23/2821Z TN06/2912Z FM290300 00000KT P6SM SKC FM291800 23010KT P6SM SKC

Säähavainnot ja -ennusteet yli 4000 lentoasemalta (METAR- ja TAF-raportit).

Käytössä olevat sääasemat on merkitty karttaan keltaisilla ja punaisilla pisteillä.

Aseta hiiri pisteen päälle nähdäksesi sääaseman nimen.

Klikkaa sitten nähdäksesi säähavainnot ja -ennusteet.

Kartan vaihtaminen: klikkaa mustalla rastilla varustettuja vihreitä pisteitä, niin voit zoomata sisään; viivalla varustettua vihreää pistettä, niin voit zoomata ulos tai vihreitä nuolia, niin pääset viereisille kartoille.


METAR-TAF: